Visemar One — ICNA — position and weather

sailwx.info

Track history (hours):
 
Tides and Currents Weather Stations Pressure Air Temp Water Temp Dewpoint Dewpoint Depression Visibility Wind Speed Wind Dir Waves Ship Positions

Visemar One

Last reported at 2017-Oct-20 10:59 UTC. Time now 2017-Oct-20 12:42 UTC.
Position N 39°25' E 002°15'.

Length 186 m; draft 6 m.

Type: Passenger vessel. MMSI: 247281400.

Date/timePositionNaut miles runAvg speedWind from/ knotsBaromVisibWave heightAir tempDewpointWater temp
2017-Oct-20 10:59N 39°25' E 002°15'1021.8
2017-Oct-20 10:30N 39°24' E 002°28'1020.1
2017-Oct-20 10:00N 39°31' E 002°39'2 4.3
2017-Oct-20 09:30N 39°33' E 002°38'0 0.0
2017-Oct-20 09:00N 39°33' E 002°38'0 0.0
2017-Oct-20 08:30N 39°33' E 002°38'0 0.0
2017-Oct-20 08:00N 39°33' E 002°38'0 0.0
2017-Oct-20 07:30N 39°33' E 002°38'0 0.0
2017-Oct-20 07:00N 39°33' E 002°38'0 0.0
2017-Oct-20 06:30N 39°33' E 002°38'0 0.0
2017-Oct-20 06:00N 39°33' E 002°38'0 0.0
2017-Oct-20 05:30N 39°33' E 002°38'0 0.0
2017-Oct-20 05:00N 39°33' E 002°38'0 0.0
2017-Oct-20 04:30N 39°33' E 002°38'0 0.0
2017-Oct-20 04:00N 39°33' E 002°38'1 1.6
2017-Oct-20 03:30N 39°33' E 002°39'1020.0
2017-Oct-20 03:00N 39°25' E 002°31'11 0.7
2017-Oct-19 10:48N 39°25' E 002°16'620.9
2017-Oct-19 10:30N 39°25' E 002°24'1019.4
2017-Oct-19 10:00N 39°29' E 002°35'4 7.8
2017-Oct-19 09:28N 39°33' E 002°38'0 0.0
2017-Oct-19 08:58N 39°33' E 002°38'0 0.0
2017-Oct-19 08:30N 39°33' E 002°38'0 0.0
2017-Oct-19 08:00N 39°33' E 002°38'0 0.0
2017-Oct-19 07:30N 39°33' E 002°38'0 0.0
2017-Oct-19 07:00N 39°33' E 002°38'0 0.0
2017-Oct-19 06:30N 39°33' E 002°38'0 0.0
2017-Oct-19 06:00N 39°33' E 002°38'0 0.0
2017-Oct-19 05:30N 39°33' E 002°38'0 0.0
2017-Oct-19 05:00N 39°33' E 002°38'0 0.0
2017-Oct-19 04:30N 39°33' E 002°38'0 0.0
2017-Oct-19 04:00N 39°33' E 002°38'1 1.5
2017-Oct-19 03:30N 39°33' E 002°39'1019.5
2017-Oct-19 03:00N 39°25' E 002°30'1019.7
2017-Oct-19 02:30N 39°25' E 002°17'4 0.3
2017-Oct-18 11:00N 39°25' E 002°12'1121.6
2017-Oct-18 10:30N 39°25' E 002°26'1019.7
2017-Oct-18 10:00N 39°30' E 002°37'3 5.2
2017-Oct-18 09:26N 39°33' E 002°38'0 0.0
2017-Oct-18 08:59N 39°33' E 002°38'0 0.0
2017-Oct-18 08:26N 39°33' E 002°38'0 0.0
2017-Oct-18 07:59N 39°33' E 002°38'0 0.0
2017-Oct-18 07:29N 39°33' E 002°38'0 0.0
2017-Oct-18 07:00N 39°33' E 002°38'0 0.0
2017-Oct-18 06:30N 39°33' E 002°38'0 0.0
2017-Oct-18 06:00N 39°33' E 002°38'0 0.0
2017-Oct-18 05:31N 39°33' E 002°38'0 0.0
2017-Oct-18 05:01N 39°33' E 002°38'0 0.0
2017-Oct-18 04:31N 39°33' E 002°38'0 0.0
2017-Oct-18 04:01N 39°33' E 002°38'1 1.4
2017-Oct-18 03:30N 39°33' E 002°39'1019.8
2017-Oct-18 03:00N 39°25' E 002°30'14 0.8
2017-Oct-17 10:55N 39°25' E 002°13'921.6
2017-Oct-17 10:30N 39°25' E 002°24'1018.9
2017-Oct-17 10:00N 39°29' E 002°35'5 9.4
2017-Oct-17 09:31N 39°33' E 002°38'0 0.0
2017-Oct-17 09:00N 39°33' E 002°38'0 0.0
2017-Oct-17 08:30N 39°33' E 002°38'0 0.0
2017-Oct-17 08:00N 39°33' E 002°38'0 0.0
2017-Oct-17 07:30N 39°33' E 002°38'0 0.0
2017-Oct-17 07:00N 39°33' E 002°38'21 1.0
2017-Oct-16 10:47N 39°25' E 002°12'620.9
2017-Oct-16 10:30N 39°25' E 002°20'1020.1
2017-Oct-16 10:00N 39°27' E 002°33'714.4
2017-Oct-16 09:30N 39°33' E 002°38'0 0.1
2017-Oct-16 08:58N 39°33' E 002°38'0 0.0
2017-Oct-16 08:28N 39°33' E 002°38'0 0.0
2017-Oct-16 08:00N 39°33' E 002°38'0 0.0
2017-Oct-16 07:30N 39°33' E 002°38'0 0.0
2017-Oct-16 07:00N 39°33' E 002°38'0 0.0
2017-Oct-16 06:30N 39°33' E 002°38'0 0.0
2017-Oct-16 06:00N 39°33' E 002°38'0 0.0
2017-Oct-16 05:30N 39°33' E 002°38'0 0.0
2017-Oct-16 05:00N 39°33' E 002°38'0 0.0
2017-Oct-16 04:30N 39°33' E 002°38'0 0.0
2017-Oct-16 04:00N 39°33' E 002°38'0 0.9
2017-Oct-16 03:31N 39°33' E 002°38'815.2
2017-Oct-16 03:01N 39°27' E 002°33'1019.1
2017-Oct-16 02:30N 39°25' E 002°21'73 2.0
2017-Oct-14 13:59N 39°25' E 000°46'1020.5
2017-Oct-14 13:29N 39°25' E 000°59'1120.8
2017-Oct-14 12:58N 39°25' E 001°13'4520.9
2017-Oct-14 10:48N 39°25' E 002°11'621.6
2017-Oct-14 10:30N 39°25' E 002°20'1020.6
2017-Oct-14 10:00N 39°26' E 002°33'714.7
2017-Oct-14 09:30N 39°33' E 002°38'0 0.1
2017-Oct-14 09:00N 39°33' E 002°38'0 0.0
2017-Oct-14 08:30N 39°33' E 002°38'0 0.0
2017-Oct-14 08:00N 39°33' E 002°38'0 0.0
2017-Oct-14 07:30N 39°33' E 002°38'0 0.0
2017-Oct-14 07:01N 39°33' E 002°38'0 0.0
2017-Oct-14 06:31N 39°33' E 002°38'0 0.0
2017-Oct-14 06:00N 39°33' E 002°38'0 0.0
2017-Oct-14 05:30N 39°33' E 002°38'0 0.0
2017-Oct-14 05:01N 39°33' E 002°38'0 0.0
2017-Oct-14 04:31N 39°33' E 002°38'0 0.0
2017-Oct-14 04:01N 39°33' E 002°38'1 1.5
2017-Oct-14 03:30N 39°33' E 002°39'918.1
2017-Oct-14 03:00N 39°26' E 002°32'3220.1
2017-Oct-14 01:24N 39°25' E 001°50'820.2
2017-Oct-14 01:00N 39°25' E 001°40'28 2.0
2017-Oct-13 10:43N 39°25' E 002°16'421.0
2017-Oct-13 10:30N 39°25' E 002°22'1019.7
2017-Oct-13 10:00N 39°28' E 002°34'610.8
2017-Oct-13 09:28N 39°33' E 002°38'0 0.0
2017-Oct-13 08:58N 39°33' E 002°38'0 0.0
2017-Oct-13 08:28N 39°33' E 002°38'0 0.0
2017-Oct-13 07:58N 39°33' E 002°38'0 0.0
2017-Oct-13 07:30N 39°33' E 002°38'0 0.0
2017-Oct-13 07:00N 39°33' E 002°38'0 0.0
2017-Oct-13 06:30N 39°33' E 002°38'0 0.0
2017-Oct-13 06:00N 39°33' E 002°38'0 0.0
2017-Oct-13 05:30N 39°33' E 002°38'0 0.0
2017-Oct-13 05:00N 39°33' E 002°38'0 0.0
2017-Oct-13 04:30N 39°33' E 002°38'0 0.0
2017-Oct-13 04:00N 39°33' E 002°38'1 1.1
2017-Oct-13 03:30N 39°33' E 002°38'816.3
2017-Oct-13 03:00N 39°26' E 002°33'1019.7
2017-Oct-13 02:30N 39°25' E 002°20'1119.5
2017-Oct-13 01:56N 39°25' E 002°06'1319.9
2017-Oct-13 01:17N 39°25' E 001°49'  
Track history (hours):
 
Tides and Currents Weather Stations Pressure Air Temp Water Temp Dewpoint Dewpoint Depression Visibility Wind Speed Wind Dir Waves Ship Positions

Visemar One

Last reported at 2017-Oct-20 10:59 UTC. Time now 2017-Oct-20 12:42 UTC.
Position N 39°25' E 002°15'.

Length 186 m; draft 6 m.

Type: Passenger vessel. MMSI: 247281400.

Date/timePositionNaut miles runAvg speedWind from/ knotsBaromVisibWave heightAir tempDewpointWater temp
2017-Oct-20 10:59N 39°25' E 002°15'1021.8
2017-Oct-20 10:30N 39°24' E 002°28'1020.1
2017-Oct-20 10:00N 39°31' E 002°39'2 4.3
2017-Oct-20 09:30N 39°33' E 002°38'0 0.0
2017-Oct-20 09:00N 39°33' E 002°38'0 0.0
2017-Oct-20 08:30N 39°33' E 002°38'0 0.0
2017-Oct-20 08:00N 39°33' E 002°38'0 0.0
2017-Oct-20 07:30N 39°33' E 002°38'0 0.0
2017-Oct-20 07:00N 39°33' E 002°38'0 0.0
2017-Oct-20 06:30N 39°33' E 002°38'0 0.0
2017-Oct-20 06:00N 39°33' E 002°38'0 0.0
2017-Oct-20 05:30N 39°33' E 002°38'0 0.0
2017-Oct-20 05:00N 39°33' E 002°38'0 0.0
2017-Oct-20 04:30N 39°33' E 002°38'0 0.0
2017-Oct-20 04:00N 39°33' E 002°38'1 1.6
2017-Oct-20 03:30N 39°33' E 002°39'1020.0
2017-Oct-20 03:00N 39°25' E 002°31'11 0.7
2017-Oct-19 10:48N 39°25' E 002°16'620.9
2017-Oct-19 10:30N 39°25' E 002°24'1019.4
2017-Oct-19 10:00N 39°29' E 002°35'4 7.8
2017-Oct-19 09:28N 39°33' E 002°38'0 0.0
2017-Oct-19 08:58N 39°33' E 002°38'0 0.0
2017-Oct-19 08:30N 39°33' E 002°38'0 0.0
2017-Oct-19 08:00N 39°33' E 002°38'0 0.0
2017-Oct-19 07:30N 39°33' E 002°38'0 0.0
2017-Oct-19 07:00N 39°33' E 002°38'0 0.0
2017-Oct-19 06:30N 39°33' E 002°38'0 0.0
2017-Oct-19 06:00N 39°33' E 002°38'0 0.0
2017-Oct-19 05:30N 39°33' E 002°38'0 0.0
2017-Oct-19 05:00N 39°33' E 002°38'0 0.0
2017-Oct-19 04:30N 39°33' E 002°38'0 0.0
2017-Oct-19 04:00N 39°33' E 002°38'1 1.5
2017-Oct-19 03:30N 39°33' E 002°39'1019.5
2017-Oct-19 03:00N 39°25' E 002°30'1019.7
2017-Oct-19 02:30N 39°25' E 002°17'4 0.3
2017-Oct-18 11:00N 39°25' E 002°12'1121.6
2017-Oct-18 10:30N 39°25' E 002°26'1019.7
2017-Oct-18 10:00N 39°30' E 002°37'3 5.2
2017-Oct-18 09:26N 39°33' E 002°38'0 0.0
2017-Oct-18 08:59N 39°33' E 002°38'0 0.0
2017-Oct-18 08:26N 39°33' E 002°38'0 0.0
2017-Oct-18 07:59N 39°33' E 002°38'0 0.0
2017-Oct-18 07:29N 39°33' E 002°38'0 0.0
2017-Oct-18 07:00N 39°33' E 002°38'0 0.0
2017-Oct-18 06:30N 39°33' E 002°38'0 0.0
2017-Oct-18 06:00N 39°33' E 002°38'0 0.0
2017-Oct-18 05:31N 39°33' E 002°38'0 0.0
2017-Oct-18 05:01N 39°33' E 002°38'0 0.0
2017-Oct-18 04:31N 39°33' E 002°38'0 0.0
2017-Oct-18 04:01N 39°33' E 002°38'1 1.4
2017-Oct-18 03:30N 39°33' E 002°39'1019.8
2017-Oct-18 03:00N 39°25' E 002°30'14 0.8
2017-Oct-17 10:55N 39°25' E 002°13'921.6
2017-Oct-17 10:30N 39°25' E 002°24'1018.9
2017-Oct-17 10:00N 39°29' E 002°35'5 9.4
2017-Oct-17 09:31N 39°33' E 002°38'0 0.0
2017-Oct-17 09:00N 39°33' E 002°38'0 0.0
2017-Oct-17 08:30N 39°33' E 002°38'0 0.0
2017-Oct-17 08:00N 39°33' E 002°38'0 0.0
2017-Oct-17 07:30N 39°33' E 002°38'0 0.0
2017-Oct-17 07:00N 39°33' E 002°38'21 1.0
2017-Oct-16 10:47N 39°25' E 002°12'620.9
2017-Oct-16 10:30N 39°25' E 002°20'1020.1
2017-Oct-16 10:00N 39°27' E 002°33'714.4
2017-Oct-16 09:30N 39°33' E 002°38'0 0.1
2017-Oct-16 08:58N 39°33' E 002°38'0 0.0
2017-Oct-16 08:28N 39°33' E 002°38'0 0.0
2017-Oct-16 08:00N 39°33' E 002°38'0 0.0
2017-Oct-16 07:30N 39°33' E 002°38'0 0.0
2017-Oct-16 07:00N 39°33' E 002°38'0 0.0
2017-Oct-16 06:30N 39°33' E 002°38'0 0.0
2017-Oct-16 06:00N 39°33' E 002°38'0 0.0
2017-Oct-16 05:30N 39°33' E 002°38'0 0.0
2017-Oct-16 05:00N 39°33' E 002°38'0 0.0
2017-Oct-16 04:30N 39°33' E 002°38'0 0.0
2017-Oct-16 04:00N 39°33' E 002°38'0 0.9
2017-Oct-16 03:31N 39°33' E 002°38'815.2
2017-Oct-16 03:01N 39°27' E 002°33'1019.1
2017-Oct-16 02:30N 39°25' E 002°21'73 2.0
2017-Oct-14 13:59N 39°25' E 000°46'1020.5
2017-Oct-14 13:29N 39°25' E 000°59'1120.8
2017-Oct-14 12:58N 39°25' E 001°13'4520.9
2017-Oct-14 10:48N 39°25' E 002°11'621.6
2017-Oct-14 10:30N 39°25' E 002°20'1020.6
2017-Oct-14 10:00N 39°26' E 002°33'714.7
2017-Oct-14 09:30N 39°33' E 002°38'0 0.1
2017-Oct-14 09:00N 39°33' E 002°38'0 0.0
2017-Oct-14 08:30N 39°33' E 002°38'0 0.0
2017-Oct-14 08:00N 39°33' E 002°38'0 0.0
2017-Oct-14 07:30N 39°33' E 002°38'0 0.0
2017-Oct-14 07:01N 39°33' E 002°38'0 0.0
2017-Oct-14 06:31N 39°33' E 002°38'0 0.0
2017-Oct-14 06:00N 39°33' E 002°38'0 0.0
2017-Oct-14 05:30N 39°33' E 002°38'0 0.0
2017-Oct-14 05:01N 39°33' E 002°38'0 0.0
2017-Oct-14 04:31N 39°33' E 002°38'0 0.0
2017-Oct-14 04:01N 39°33' E 002°38'1 1.5
2017-Oct-14 03:30N 39°33' E 002°39'918.1
2017-Oct-14 03:00N 39°26' E 002°32'3220.1
2017-Oct-14 01:24N 39°25' E 001°50'820.2
2017-Oct-14 01:00N 39°25' E 001°40'28 2.0
2017-Oct-13 10:43N 39°25' E 002°16'421.0
2017-Oct-13 10:30N 39°25' E 002°22'1019.7
2017-Oct-13 10:00N 39°28' E 002°34'610.8
2017-Oct-13 09:28N 39°33' E 002°38'0 0.0
2017-Oct-13 08:58N 39°33' E 002°38'0 0.0
2017-Oct-13 08:28N 39°33' E 002°38'0 0.0
2017-Oct-13 07:58N 39°33' E 002°38'0 0.0
2017-Oct-13 07:30N 39°33' E 002°38'0 0.0
2017-Oct-13 07:00N 39°33' E 002°38'0 0.0
2017-Oct-13 06:30N 39°33' E 002°38'0 0.0
2017-Oct-13 06:00N 39°33' E 002°38'0 0.0
2017-Oct-13 05:30N 39°33' E 002°38'0 0.0
2017-Oct-13 05:00N 39°33' E 002°38'0 0.0
2017-Oct-13 04:30N 39°33' E 002°38'0 0.0
2017-Oct-13 04:00N 39°33' E 002°38'1 1.1
2017-Oct-13 03:30N 39°33' E 002°38'816.3
2017-Oct-13 03:00N 39°26' E 002°33'1019.7
2017-Oct-13 02:30N 39°25' E 002°20'1119.5
2017-Oct-13 01:56N 39°25' E 002°06'1319.9
2017-Oct-13 01:17N 39°25' E 001°49'  

Dump ship's entire track history